Latest Coastal Weather Observations for Cape Naturaliste

IDW60701

Issued at 2:43 pm WST Friday 21 July 2017 (issued every 10 minutes, with the page automatically refreshed every 10 minutes)

About coastal observations | Map of coastal stations | Coastal observations for WA | Marine services | Other Formats
Station Details ID: 009519 Name: CAPE NATURALISTE Lat: -33.54 Lon: 115.02 Height: 109.0 m
Data from the previous 72 hours. | See also: Recent months at Cape Naturaliste
Date/Time
WST
Temp
°C
Wind Pressure Rain since
9am
mm
Weather Cloud Vis
km
Sea
Height
m
Swell
Dir  Spd
kts
Gust
kts
hPa Trend Height
m
Period
s
Dir
21/02:30pm 14.7 W 22 30 1009.7 - 3.6 - - - - - - -
21/02:00pm 14.4 W 26 33 1009.5 - 3.6 - - - - - - -
21/01:40pm 14.1 W 31 43 1009.4 - 2.8 - - - - - - -
21/01:30pm 15.2 WNW 27 37 1009.2 - 0.8 - - - - - - -
21/01:02pm 16.6 WNW 27 37 1009.3 - 0.8 - - - - - - -
21/01:00pm 16.8 WNW 28 37 1009.3 - 0.8 - - - - - - -
21/12:52pm 16.9 WNW 27 37 1009.3 - 0.8 - - - - - - -
21/12:30pm 15.9 WNW 27 35 1009.8 - 0.8 - - - - - - -
21/12:01pm 15.5 WNW 25 37 1010.2 - 0.2 - - - - - - -
21/12:00pm 15.7 WNW 25 33 1010.2 - 0.2 - - - - - - -
21/11:32am 17.5 NW 25 36 1010.5 - 0.2 - - - - - - -
21/11:30am 17.6 NW 25 33 1010.6 - 0.2 - - - - - - -
21/11:13am 17.6 WNW 25 35 1010.8 - 0.2 - - - - - - -
21/11:00am 16.9 WNW 27 35 1010.7 - 0.2 - - - - - - -
21/10:30am 14.7 WNW 23 35 1010.9 - 0.2 - - - - - - -
21/10:11am 16.9 WNW 25 36 1010.8 - 0.0 - - - - - - -
21/10:00am 16.9 WNW 24 32 1010.8 - 0.0 - - - - - - -
21/09:30am 16.0 WNW 28 38 1010.6 - 0.0 - - - - - - -
21/09:03am 17.0 WNW 26 36 1010.4 - 0.0 - - - - - - -
21/09:00am 16.7 WNW 26 34 1010.4 - 1.4 Rain - - - - - -
21/08:43am 16.1 WNW 23 35 1010.3 - 1.2 - - - - - - -
21/08:30am 15.4 WNW 24 31 1010.3 - 1.2 - - - - - - -
21/08:00am 14.6 WNW 23 29 1010.0 - 1.2 - - - - - - -
21/07:36am 13.9 WNW 22 32 1010.1 - 1.2 - - - - - - -
21/07:30am 14.4 WNW 23 32 1010.1 - 1.2 - - - - - - -
21/07:29am 14.6 WNW 22 32 1010.1 - 1.2 - - - - - - -
21/07:00am 14.8 WNW 24 31 1009.9 - 1.2 - - - - - - -
21/06:30am 13.8 WNW 22 29 1009.9 - 1.2 - - - - - - -
21/06:00am 13.8 WNW 23 31 1009.7 - 1.2 Recent precip. - - - - - -
21/05:30am 13.7 W 19 27 1009.6 - 1.2 - - - - - - -
21/05:00am 13.9 W 21 27 1009.7 - 0.6 - - - - - - -
21/04:33am 14.4 W 24 35 1009.5 - 0.6 - - - - - - -
21/04:30am 14.4 W 22 31 1009.5 - 0.6 - - - - - - -
21/04:00am 13.2 W 20 26 1009.6 - 0.6 - - - - - - -
21/03:40am 14.4 W 22 33 1009.5 - 0.2 - - - - - - -
21/03:30am 13.8 W 23 29 1009.6 - 0.2 - - - - - - -
21/03:00am 13.6 WNW 21 31 1010.0 - 0.2 - - - - - - -
21/02:56am 14.4 WNW 20 31 1009.9 - 0.2 - - - - - - -
21/02:30am 14.8 W 21 27 1010.1 - 0.2 - - - - - - -
21/02:00am 14.6 WNW 23 31 1010.2 - 0.2 - - - - - - -
21/01:30am 14.6 W 20 27 1010.5 - 0.2 - - - - - - -
21/01:00am 14.8 W 22 31 1010.5 - 0.2 - - - - - - -
21/12:30am 14.8 W 20 26 1010.9 - 0.2 - - - - - - -
21/12:00am 14.1 W 20 28 1011.0 - 0.2 - - - - - - -
 
Date/Time
WST
Temp
°C
Wind Pressure Rain since
9am
mm
Weather Cloud Vis
km
Sea
Height
m
Swell
Dir  Spd
kts
Gust
kts
hPa Trend Height
m
Period
s
Dir
20/11:30pm 14.6 W 19 24 1011.1 - 0.2 - - - - - - -
20/11:00pm 14.4 WSW 19 25 1011.2 - 0.2 - - - - - - -
20/10:30pm 14.6 WSW 22 27 1011.3 - 0.2 - - - - - - -
20/10:00pm 14.3 WSW 21 27 1011.1 - 0.2 - - - - - - -
20/09:30pm 14.1 WSW 21 29 1011.1 - 0.2 - - - - - - -
20/09:00pm 14.4 W 22 31 1011.0 - 0.2 - - - - - - -
20/08:30pm 14.1 WSW 21 28 1011.0 - 0.2 - - - - - - -
20/08:00pm 13.9 WSW 21 26 1010.8 - 0.2 - - - - - - -
20/07:30pm 14.0 WSW 20 27 1010.7 - 0.2 - - - - - - -
20/07:00pm 14.0 WSW 23 32 1010.3 - 0.2 - - - - - - -
20/06:30pm 13.9 WSW 24 32 1009.8 - 0.2 - - - - - - -
20/06:00pm 13.8 WSW 22 32 1009.7 - 0.2 - - - - - - -
20/05:30pm 13.9 WSW 24 32 1009.4 - 0.2 - - - - - - -
20/05:00pm 13.8 WSW 24 31 1009.1 - 0.2 - - - - - - -
20/04:30pm 14.2 WSW 25 32 1008.8 - 0.2 - - - - - - -
20/04:00pm 14.8 WSW 24 33 1008.5 - 0.2 - - - - - - -
20/03:38pm 15.3 WSW 24 34 1008.2 - 0.2 - - - - - - -
20/03:30pm 15.2 W 25 31 1008.2 - 0.2 - - - - - - -
20/03:00pm 14.2 WSW 24 33 1007.9 - 0.2 - - - - - - -
20/02:30pm 15.1 WSW 24 33 1007.5 - 0.2 - - - - - - -
20/02:22pm 16.1 W 24 34 1007.6 - 0.2 - - - - - - -
20/02:00pm 15.8 WSW 25 34 1007.5 - 0.2 - - - - - - -
20/01:30pm 15.5 WSW 23 32 1007.6 - 0.2 - - - - - - -
20/01:00pm 14.9 WSW 27 39 1007.6 - 0.2 - - - - - - -
20/12:30pm 16.1 W 25 35 1007.6 - 0.2 - - - - - - -
20/12:00pm 15.1 WSW 25 35 1007.8 - 0.2 - - - - - - -
20/11:36am 14.8 W 23 33 1007.8 - 0.2 - - - - - - -
20/11:30am 14.3 W 24 33 1007.8 - 0.2 - - - - - - -
20/11:00am 15.8 W 23 30 1007.9 - 0.2 - - - - - - -
20/10:35am 13.9 W 22 32 1008.0 - 0.2 - - - - - - -
20/10:30am 13.2 W 23 32 1008.0 - 0.2 - - - - - - -
20/10:00am 15.2 W 19 27 1007.8 - 0.2 - - - - - - -
20/09:30am 14.4 W 21 27 1007.7 - 0.0 - - - - - - -
20/09:01am 12.7 W 25 37 1007.7 - 0.0 - - - - - - -
20/09:00am 12.8 W 25 37 1007.7 - 14.8 - - - - - - -
20/08:58am 13.6 W 24 37 1007.6 - 14.8 - - - - - - -
20/08:41am 14.8 WNW 18 28 1007.4 - 14.8 - - - - - - -
20/08:30am 13.8 WNW 20 28 1007.4 - 14.8 - - - - - - -
20/08:29am 13.7 WNW 20 28 1007.4 - 14.8 - - - - - - -
20/08:02am 14.2 W 22 32 1007.3 - 14.8 - - - - - - -
20/08:00am 14.3 W 21 30 1007.3 - 14.8 - - - - - - -
20/07:30am 13.7 W 19 27 1007.3 - 14.8 - - - - - - -
20/07:00am 13.7 W 21 28 1007.2 - 14.8 - - - - - - -
20/06:30am 13.2 W 20 27 1006.8 - 14.8 - - - - - - -
20/06:00am 12.8 W 21 26 1006.7 - 14.8 - - - - - - -
20/05:30am 13.1 W 19 28 1006.3 - 14.8 - - - - - - -
20/05:00am 13.2 W 20 29 1006.0 - 14.8 - - - - - - -
20/04:30am 12.9 W 21 27 1006.1 - 14.8 - - - - - - -
20/04:00am 12.9 WSW 23 32 1006.0 - 14.8 - - - - - - -
20/03:30am 13.0 WSW 23 30 1006.0 - 14.8 - - - - - - -
20/03:00am 12.2 W 22 30 1006.0 - 14.8 Recent precip. - - - - - -
20/02:30am 11.1 WSW 28 38 1005.8 - 14.8 - - - - - - -
20/02:00am 12.7 W 30 41 1005.3 - 14.6 - - - - - - -
20/01:57am 12.6 W 29 41 1005.3 - 14.6 - - - - - - -
20/01:30am 11.3 W 28 37 1005.4 - 14.6 - - - - - - -
20/01:01am 12.8 W 29 41 1005.5 - 14.0 - - - - - - -
20/01:00am 12.6 W 28 37 1005.5 - 14.0 - - - - - - -
20/12:44am 13.0 W 28 38 1005.4 - 14.0 - - - - - - -
20/12:30am 12.5 W 30 38 1005.2 - 14.0 - - - - - - -
20/12:00am 11.4 W 31 42 1005.5 - 14.0 Recent precip. - - - - - -
 
Date/Time
WST
Temp
°C
Wind Pressure Rain since
9am
mm
Weather Cloud Vis
km
Sea
Height
m
Swell
Dir  Spd
kts
Gust
kts
hPa Trend Height
m
Period
s
Dir
19/11:44pm 12.3 WNW 30 46 1005.6 - 13.8 - - - - - - -
19/11:33pm 11.8 WNW 30 52 1006.1 - 13.4 - - - - - - -
19/11:30pm 11.5 WNW 31 52 1006.3 - 13.4 - - - - - - -
19/11:28pm 11.3 WNW 31 52 1006.3 - 13.2 - - - - - - -
19/11:25pm 11.9 WNW 29 52 1006.0 - 12.8 - - - - - - -
19/11:24pm 12.6 WNW 27 52 1006.1 - 12.6 - - - - - - -
19/11:00pm 12.3 WNW 25 35 1006.1 - 12.6 - - - - - - -
19/10:37pm 12.0 NW 27 42 1006.5 - 11.8 - - - - - - -
19/10:30pm 12.4 NW 29 40 1006.3 - 11.4 - - - - - - -
19/10:27pm 12.8 WNW 30 40 1006.4 - 11.2 - - - - - - -
19/10:00pm 12.9 W 28 38 1006.3 - 11.2 - - - - - - -
19/09:34pm 13.5 WNW 25 35 1006.4 - 11.2 - - - - - - -
19/09:30pm 14.2 WNW 26 35 1006.4 - 11.2 - - - - - - -
19/09:00pm 13.5 WNW 28 38 1006.5 - 11.2 Rain - - - - - -
19/08:30pm 13.4 W 25 34 1006.7 - 11.0 - - - - - - -
19/08:00pm 13.0 WNW 25 40 1006.7 - 10.8 - - - - - - -
19/07:41pm 13.5 WNW 26 37 1006.6 - 10.8 - - - - - - -
19/07:30pm 13.0 WNW 25 34 1006.6 - 10.8 - - - - - - -
19/07:16pm 13.1 NW 23 41 1006.9 - 10.4 - - - - - - -
19/07:04pm 13.2 NW 21 31 1006.9 - 9.8 - - - - - - -
19/07:00pm 13.3 NW 23 31 1007.1 - 9.8 - - - - - - -
19/06:30pm 13.1 NW 27 37 1007.4 - 9.2 - - - - - - -
19/06:00pm 12.9 NW 25 35 1007.2 - 9.2 Recent precip. - - - - - -
19/05:30pm 12.9 NW 25 35 1007.4 - 3.6 - - - - - - -
19/05:00pm 12.6 NW 26 36 1007.5 - 2.8 - - - - - - -
19/04:30pm 12.5 NW 27 40 1007.8 - 2.4 - - - - - - -
19/04:01pm 12.3 NW 27 37 1007.8 - 1.8 - - - - - - -
19/04:00pm 12.2 NW 28 37 1007.8 - 1.8 - - - - - - -
19/03:50pm 13.2 NW 31 44 1007.8 - 1.2 - - - - - - -
19/03:32pm 14.7 NNW 25 35 1007.8 - 1.0 - - - - - - -
19/03:30pm 14.5 NNW 25 33 1007.8 - 1.0 - - - - - - -
19/03:01pm 13.3 NNW 29 39 1007.9 - 1.0 - - - - - - -
19/03:00pm 13.2 NNW 30 39 1008.0 - 1.0 Recent precip. - - - - - -
19/02:30pm 15.4 NW 27 37 1007.9 - 0.4 - - - - - - -
19/02:00pm 15.1 NNW 26 39 1008.1 - 0.4 - - - - - - -
19/01:43pm 16.0 NW 26 37 1008.6 - 0.2 - - - - - - -
19/01:30pm 16.1 NW 25 32 1008.8 - 0.2 - - - - - - -
19/01:00pm 17.7 NW 27 34 1009.0 - 0.2 - - - - - - -
19/12:30pm 16.9 NW 25 36 1009.6 - 0.2 - - - - - - -
19/12:00pm 15.9 NW 27 37 1010.1 - 0.2 - - - - - - -
19/11:45am 16.9 NW 24 34 1010.3 - 0.2 - - - - - - -
19/11:30am 16.1 NW 25 33 1010.5 - 0.2 - - - - - - -
19/11:14am 16.3 NW 24 34 1010.7 - 0.2 - - - - - - -
19/11:00am 16.3 NW 23 31 1010.9 - 0.2 - - - - - - -
19/10:33am 15.9 NW 23 35 1011.2 - 0.2 - - - - - - -
19/10:30am 15.5 NW 23 31 1011.2 - 0.2 - - - - - - -
19/10:00am 14.3 NW 21 36 1011.3 - 0.2 - - - - - - -
19/09:31am 13.8 NW 26 36 1011.5 - 0.2 - - - - - - -
19/09:30am 13.8 NW 27 36 1011.5 - 0.2 - - - - - - -
19/09:04am 13.5 NW 23 33 1011.3 - 0.0 - - - - - - -
19/09:00am 13.6 NW 22 28 1011.5 - 18.2 Recent precip. - - - - - -
19/08:46am 12.1 NW 26 36 1011.6 - 18.2 - - - - - - -
19/08:33am 12.6 NW 26 36 1011.6 - 18.2 - - - - - - -
19/08:30am 13.4 NNW 23 34 1011.4 - 18.2 - - - - - - -
19/08:20am 12.8 NNW 21 31 1011.4 - 18.2 - - - - - - -
19/08:00am 14.4 NW 23 30 1011.4 - 17.8 - - - - - - -
19/07:30am 13.8 NNW 22 32 1011.4 - 17.8 - - - - - - -
19/07:18am 13.9 NW 22 32 1011.3 - 17.8 - - - - - - -
19/07:00am 12.5 WNW 21 27 1011.5 - 17.6 - - - - - - -
19/06:35am 13.3 NW 18 31 1011.4 - 17.6 - - - - - - -
19/06:30am 13.8 NW 17 23 1011.4 - 17.6 - - - - - - -
19/06:00am 12.6 NW 19 32 1011.4 - 17.6 Rain - - - - - -
19/05:34am 13.5 NW 19 29 1011.4 - 17.4 - - - - - - -
19/05:30am 14.1 NW 18 24 1011.4 - 17.4 - - - - - - -
19/05:00am 13.9 NW 22 31 1011.6 - 17.4 - - - - - - -
19/04:40am 14.3 NW 17 28 1011.6 - 17.4 - - - - - - -
19/04:30am 14.2 NW 20 27 1011.7 - 17.4 - - - - - - -
19/04:13am 14.2 NW 18 29 1011.6 - 17.4 - - - - - - -
19/04:00am 13.7 NW 19 25 1011.9 - 17.4 - - - - - - -
19/03:30am 14.0 NW 19 25 1012.1 - 17.4 - - - - - - -
19/03:00am 13.6 NW 18 24 1012.1 - 17.4 - - - - - - -
19/02:30am 13.3 WNW 20 30 1012.2 - 17.4 - - - - - - -
19/02:24am 13.6 WNW 20 30 1012.3 - 17.4 - - - - - - -
19/02:00am 13.3 WNW 21 30 1012.3 - 17.4 - - - - - - -
19/01:50am 13.6 WNW 18 29 1012.3 - 17.4 - - - - - - -
19/01:30am 13.5 WNW 18 25 1012.2 - 17.4 - - - - - - -
19/01:00am 12.8 WNW 21 29 1012.2 - 17.4 - - - - - - -
19/12:30am 12.5 WNW 18 23 1012.5 - 17.4 - - - - - - -
19/12:00am 13.1 NW 17 23 1012.7 - 17.0 Recent precip. - - - - - -
 
Date/Time
WST
Temp
°C
Wind Pressure Rain since
9am
mm
Weather Cloud Vis
km
Sea
Height
m
Swell
Dir  Spd
kts
Gust
kts
hPa Trend Height
m
Period
s
Dir
18/11:30pm 13.0 NW 17 26 1012.9 - 17.0 - - - - - - -
18/11:11pm 13.2 NW 17 27 1013.2 - 16.6 - - - - - - -
18/11:00pm 12.5 NW 17 25 1013.3 - 16.6 - - - - - - -
18/10:39pm 12.8 WNW 17 31 1013.2 - 15.8 - - - - - - -
18/10:30pm 13.2 NW 19 25 1013.3 - 15.2 - - - - - - -
18/10:28pm 13.3 NW 19 29 1013.4 - 15.2 - - - - - - -
18/10:00pm 13.6 WNW 23 32 1013.2 - 15.2 - - - - - - -
18/09:30pm 13.5 WNW 22 30 1013.2 - 15.2 - - - - - - -
18/09:00pm 13.6 WNW 22 28 1013.1 - 15.2 Recent precip. - - - - - -
18/08:47pm 13.0 WNW 23 33 1013.0 - 15.2 - - - - - - -
18/08:30pm 13.2 WNW 24 32 1013.2 - 15.0 - - - - - - -
18/08:15pm 13.1 WNW 27 38 1013.0 - 15.0 - - - - - - -
18/08:00pm 13.2 WNW 26 33 1012.6 - 14.8 - - - - - - -
18/07:36pm 13.8 WNW 22 32 1012.4 - 14.6 - - - - - - -
18/07:30pm 14.0 WNW 22 30 1012.4 - 14.4 - - - - - - -
18/07:00pm 14.6 WNW 20 27 1012.2 - 14.0 - - - - - - -
18/06:30pm 14.3 WNW 22 27 1011.7 - 14.0 - - - - - - -
18/06:00pm 15.0 WNW 18 25 1011.5 - 13.4 Rain - - - - - -
18/05:30pm 15.2 NW 15 21 1011.2 - 13.2 - - - - - - -
18/05:00pm 15.5 WNW 15 20 1011.1 - 12.8 - - - - - - -
18/04:30pm 15.4 WNW 16 21 1010.9 - 12.6 - - - - - - -
18/04:00pm 15.8 W 15 19 1010.9 - 12.2 - - - - - - -
18/03:30pm 16.5 NNW 25 41 1010.9 - 0.8 - - - - - - -
18/03:28pm 17.4 N 27 41 1010.9 - 0.0 - - - - - - -
18/03:01pm 18.8 N 29 39 1009.9 - 0.0 - - - - - - -
18/03:00pm 18.9 N 30 39 1009.9 - 0.0 - - - - - - -

Other Formats:

Comma delimited format used in spreadsheet applications
http://www.bom.gov.au/fwo/IDW60701/IDW60701.94600.axf

JavaScript Object Notation format (JSON) in row-major order
http://www.bom.gov.au/fwo/IDW60701/IDW60701.94600.json